SUR4101 SACO-SANE
Flight info
| Callsign | SUR4101 |
|---|---|
| Flight time | 0h 50m |
| Altitude | 23000 |
| Route | LOGET1C LOGET W6 VUPRO |
| Aircraft | DH8D/M-SDE2E3FGRY/H |
Departure
| Time | 2026-04-27 19:36 |
|---|---|
| Airport | Ingeniero Aeronáutico Ambrosio L.V. Taravella International Airport (SACO) |
Arrival
| Time | 2026-04-27 20:27 |
|---|---|
| Airport | Vicecomodoro Angel D. La Paz Aragonés Airport (SANE) |
| Time | Latitude | Longitude | Altitude | Speed | Heading |
|---|---|---|---|---|---|
| 2026-04-27 19:00 | -31.31295 | -64.21184 | 1573 ft | 0 kts | 268° |
| 2026-04-27 19:23 | -31.31297 | -64.21174 | 1573 ft | 2 kts | 285° |
| 2026-04-27 19:23 | -31.31301 | -64.21157 | 1573 ft | 2 kts | 282° |
| 2026-04-27 19:24 | -31.31303 | -64.21145 | 1572 ft | 0 kts | 282° |
| 2026-04-27 19:24 | -31.31303 | -64.21138 | 1572 ft | 0 kts | 233° |
| 2026-04-27 19:24 | -31.31298 | -64.21134 | 1572 ft | 0 kts | 183° |
| 2026-04-27 19:24 | -31.31292 | -64.21135 | 1572 ft | 0 kts | 171° |
| 2026-04-27 19:29 | -31.31309 | -64.21084 | 1571 ft | 9 kts | 139° |
| 2026-04-27 19:29 | -31.31372 | -64.21057 | 1570 ft | 10 kts | 158° |
| 2026-04-27 19:30 | -31.31452 | -64.21041 | 1568 ft | 13 kts | 178° |
| 2026-04-27 19:30 | -31.31562 | -64.21038 | 1565 ft | 17 kts | 178° |
| 2026-04-27 19:30 | -31.31687 | -64.21034 | 1561 ft | 17 kts | 179° |
| 2026-04-27 19:30 | -31.31805 | -64.21030 | 1558 ft | 16 kts | 175° |
| 2026-04-27 19:31 | -31.31920 | -64.21026 | 1554 ft | 16 kts | 179° |
| 2026-04-27 19:31 | -31.32035 | -64.21024 | 1550 ft | 16 kts | 179° |
| 2026-04-27 19:31 | -31.32148 | -64.21022 | 1548 ft | 16 kts | 179° |
| 2026-04-27 19:31 | -31.32259 | -64.21022 | 1546 ft | 15 kts | 180° |
| 2026-04-27 19:32 | -31.32369 | -64.21020 | 1544 ft | 15 kts | 178° |
| 2026-04-27 19:32 | -31.32404 | -64.21011 | 1543 ft | 0 kts | 153° |
| 2026-04-27 19:33 | -31.32405 | -64.21010 | 1543 ft | 0 kts | 153° |
| 2026-04-27 19:33 | -31.32421 | -64.20998 | 1542 ft | 3 kts | 138° |
| 2026-04-27 19:33 | -31.32437 | -64.20971 | 1541 ft | 4 kts | 116° |
| 2026-04-27 19:34 | -31.32447 | -64.20937 | 1540 ft | 4 kts | 99° |
| 2026-04-27 19:34 | -31.32446 | -64.20905 | 1540 ft | 3 kts | 86° |
| 2026-04-27 19:34 | -31.32445 | -64.20876 | 1539 ft | 3 kts | 86° |
| 2026-04-27 19:34 | -31.32444 | -64.20853 | 1539 ft | 2 kts | 87° |
| 2026-04-27 19:35 | -31.32441 | -64.20832 | 1538 ft | 2 kts | 66° |
| 2026-04-27 19:35 | -31.32426 | -64.20821 | 1538 ft | 7 kts | 18° |
| 2026-04-27 19:35 | -31.32218 | -64.20813 | 1543 ft | 71 kts | 359° |
| 2026-04-27 19:35 | -31.31447 | -64.20821 | 1562 ft | 144 kts | 359° |
| 2026-04-27 19:36 | -31.30306 | -64.20888 | 1829 ft | 171 kts | 356° |
| 2026-04-27 19:36 | -31.29194 | -64.20892 | 2747 ft | 160 kts | 4° |
| 2026-04-27 19:36 | -31.28114 | -64.20875 | 3447 ft | 156 kts | 2° |
| 2026-04-27 19:36 | -31.27032 | -64.20868 | 3944 ft | 158 kts | 1° |
| 2026-04-27 19:37 | -31.25923 | -64.20868 | 4462 ft | 161 kts | 360° |
| 2026-04-27 19:37 | -31.24790 | -64.20875 | 4973 ft | 164 kts | 359° |
| 2026-04-27 19:37 | -31.23652 | -64.20886 | 5511 ft | 165 kts | 358° |
| 2026-04-27 19:37 | -31.22514 | -64.20901 | 6032 ft | 167 kts | 357° |
| 2026-04-27 19:38 | -31.21338 | -64.20919 | 6542 ft | 169 kts | 356° |
| 2026-04-27 19:38 | -31.20167 | -64.20948 | 7021 ft | 172 kts | 352° |
| 2026-04-27 19:38 | -31.19055 | -64.21435 | 7427 ft | 174 kts | 322° |
| 2026-04-27 19:38 | -31.18101 | -64.22306 | 7910 ft | 178 kts | 320° |
| 2026-04-27 19:39 | -31.17138 | -64.23201 | 8380 ft | 179 kts | 319° |
| 2026-04-27 19:39 | -31.16146 | -64.24121 | 8804 ft | 183 kts | 319° |
| 2026-04-27 19:39 | -31.15139 | -64.25053 | 9244 ft | 187 kts | 319° |
| 2026-04-27 19:39 | -31.14122 | -64.25994 | 9684 ft | 190 kts | 319° |
| 2026-04-27 19:40 | -31.13067 | -64.26970 | 10134 ft | 192 kts | 319° |
| 2026-04-27 19:40 | -31.12027 | -64.27930 | 10573 ft | 195 kts | 319° |
| 2026-04-27 19:40 | -31.10893 | -64.28982 | 10674 ft | 218 kts | 319° |
| 2026-04-27 19:40 | -31.09662 | -64.30125 | 10941 ft | 230 kts | 319° |
| 2026-04-27 19:41 | -31.08404 | -64.31288 | 11355 ft | 235 kts | 318° |
| 2026-04-27 19:41 | -31.07114 | -64.32479 | 11829 ft | 238 kts | 317° |
| 2026-04-27 19:41 | -31.05807 | -64.33684 | 12287 ft | 240 kts | 317° |
| 2026-04-27 19:41 | -31.04496 | -64.34893 | 12751 ft | 241 kts | 317° |
| 2026-04-27 19:42 | -31.03189 | -64.36097 | 13170 ft | 243 kts | 317° |
| 2026-04-27 19:42 | -31.01840 | -64.37305 | 13590 ft | 247 kts | 322° |
| 2026-04-27 19:42 | -31.00188 | -64.37936 | 13938 ft | 256 kts | 352° |
| 2026-04-27 19:42 | -30.98390 | -64.37992 | 14328 ft | 259 kts | 355° |
| 2026-04-27 19:43 | -30.96600 | -64.38021 | 14720 ft | 260 kts | 355° |
| 2026-04-27 19:43 | -30.94786 | -64.38051 | 15127 ft | 259 kts | 355° |
| 2026-04-27 19:43 | -30.92963 | -64.38084 | 15486 ft | 261 kts | 355° |
| 2026-04-27 19:43 | -30.91146 | -64.38120 | 15874 ft | 261 kts | 355° |
| 2026-04-27 19:44 | -30.89337 | -64.38158 | 16240 ft | 261 kts | 355° |
| 2026-04-27 19:44 | -30.87507 | -64.38198 | 16559 ft | 263 kts | 354° |
| 2026-04-27 19:44 | -30.85670 | -64.38239 | 16888 ft | 265 kts | 354° |
| 2026-04-27 19:44 | -30.83847 | -64.38281 | 17238 ft | 264 kts | 354° |
| 2026-04-27 19:45 | -30.81994 | -64.38324 | 17536 ft | 265 kts | 354° |
| 2026-04-27 19:45 | -30.80136 | -64.38367 | 17834 ft | 266 kts | 354° |
| 2026-04-27 19:45 | -30.78305 | -64.38410 | 18136 ft | 267 kts | 354° |
| 2026-04-27 19:45 | -30.76439 | -64.38454 | 18439 ft | 267 kts | 354° |
| 2026-04-27 19:46 | -30.74569 | -64.38499 | 18705 ft | 269 kts | 354° |
| 2026-04-27 19:46 | -30.72687 | -64.38544 | 18962 ft | 270 kts | 354° |
| 2026-04-27 19:46 | -30.70808 | -64.38588 | 19256 ft | 271 kts | 354° |
| 2026-04-27 19:46 | -30.68908 | -64.38634 | 19490 ft | 273 kts | 354° |
| 2026-04-27 19:47 | -30.67005 | -64.38679 | 19771 ft | 273 kts | 354° |
| 2026-04-27 19:47 | -30.65098 | -64.38724 | 20022 ft | 274 kts | 354° |
| 2026-04-27 19:47 | -30.63188 | -64.38769 | 20266 ft | 274 kts | 354° |
| 2026-04-27 19:47 | -30.61264 | -64.38815 | 20468 ft | 277 kts | 354° |
| 2026-04-27 19:48 | -30.59355 | -64.38860 | 20699 ft | 277 kts | 354° |
| 2026-04-27 19:48 | -30.57415 | -64.38903 | 20891 ft | 279 kts | 355° |
| 2026-04-27 19:48 | -30.55490 | -64.38500 | 21045 ft | 288 kts | 23° |
| 2026-04-27 19:48 | -30.53837 | -64.37158 | 21191 ft | 292 kts | 37° |
| 2026-04-27 19:49 | -30.52267 | -64.35644 | 21409 ft | 292 kts | 38° |
| 2026-04-27 19:49 | -30.51234 | -64.34646 | 21467 ft | 295 kts | 37° |
| 2026-04-27 19:49 | -30.49138 | -64.32623 | 21729 ft | 296 kts | 37° |
| 2026-04-27 19:49 | -30.47570 | -64.31116 | 21980 ft | 292 kts | 37° |
| 2026-04-27 19:50 | -30.46015 | -64.29623 | 22183 ft | 293 kts | 37° |
| 2026-04-27 19:50 | -30.44437 | -64.28113 | 22310 ft | 294 kts | 38° |
| 2026-04-27 19:50 | -30.42846 | -64.26592 | 22418 ft | 297 kts | 37° |
| 2026-04-27 19:50 | -30.41255 | -64.25072 | 22609 ft | 297 kts | 37° |
| 2026-04-27 19:51 | -30.39524 | -64.23767 | 22643 ft | 295 kts | 16° |
| 2026-04-27 19:51 | -30.37538 | -64.23457 | 22763 ft | 287 kts | 356° |
| 2026-04-27 19:51 | -30.35536 | -64.23505 | 22900 ft | 286 kts | 354° |
| 2026-04-27 19:51 | -30.33534 | -64.23569 | 23016 ft | 289 kts | 354° |
| 2026-04-27 19:52 | -30.31505 | -64.23637 | 23053 ft | 294 kts | 354° |
| 2026-04-27 19:52 | -30.29442 | -64.23708 | 23059 ft | 299 kts | 354° |
| 2026-04-27 19:52 | -30.27350 | -64.23778 | 23064 ft | 305 kts | 354° |
| 2026-04-27 19:52 | -30.25206 | -64.23850 | 23066 ft | 310 kts | 355° |
| 2026-04-27 19:53 | -30.20800 | -64.23996 | 23066 ft | 321 kts | 355° |
| 2026-04-27 19:53 | -30.18539 | -64.24071 | 23065 ft | 326 kts | 354° |
| 2026-04-27 19:53 | -30.16281 | -64.24144 | 23067 ft | 330 kts | 354° |
| 2026-04-27 19:54 | -30.13970 | -64.24219 | 23067 ft | 334 kts | 354° |
| 2026-04-27 19:54 | -30.11629 | -64.24296 | 23063 ft | 337 kts | 354° |
| 2026-04-27 19:54 | -30.09251 | -64.24374 | 23065 ft | 340 kts | 355° |
| 2026-04-27 19:54 | -30.06881 | -64.24451 | 23065 ft | 343 kts | 354° |
| 2026-04-27 19:55 | -30.04485 | -64.24528 | 23066 ft | 345 kts | 355° |
| 2026-04-27 19:55 | -30.02072 | -64.24607 | 23065 ft | 347 kts | 354° |
| 2026-04-27 19:55 | -29.99665 | -64.24686 | 23066 ft | 348 kts | 355° |
| 2026-04-27 19:55 | -29.97240 | -64.24764 | 23063 ft | 349 kts | 355° |
| 2026-04-27 19:56 | -29.94796 | -64.24844 | 23064 ft | 350 kts | 355° |
| 2026-04-27 19:56 | -29.92356 | -64.24923 | 23067 ft | 351 kts | 355° |
| 2026-04-27 19:56 | -29.89903 | -64.25002 | 23065 ft | 352 kts | 355° |
| 2026-04-27 19:56 | -29.87456 | -64.25082 | 23065 ft | 352 kts | 355° |
| 2026-04-27 19:57 | -29.84994 | -64.25162 | 23069 ft | 352 kts | 355° |
| 2026-04-27 19:57 | -29.82547 | -64.25241 | 23068 ft | 352 kts | 355° |
| 2026-04-27 19:57 | -29.80092 | -64.25320 | 23066 ft | 352 kts | 354° |
| 2026-04-27 19:57 | -29.77634 | -64.25401 | 23066 ft | 352 kts | 355° |
| 2026-04-27 19:58 | -29.75207 | -64.25479 | 23069 ft | 352 kts | 355° |
| 2026-04-27 19:58 | -29.72750 | -64.25558 | 23075 ft | 352 kts | 354° |
| 2026-04-27 19:58 | -29.70289 | -64.25639 | 23072 ft | 352 kts | 354° |
| 2026-04-27 19:58 | -29.67837 | -64.25719 | 23068 ft | 353 kts | 354° |
| 2026-04-27 19:59 | -29.65378 | -64.25798 | 23065 ft | 353 kts | 355° |
| 2026-04-27 19:59 | -29.62909 | -64.25878 | 23067 ft | 353 kts | 354° |
| 2026-04-27 19:59 | -29.60444 | -64.25957 | 23070 ft | 353 kts | 354° |
| 2026-04-27 19:59 | -29.58017 | -64.26036 | 23070 ft | 353 kts | 354° |
| 2026-04-27 20:00 | -29.55560 | -64.26115 | 23069 ft | 353 kts | 355° |
| 2026-04-27 20:00 | -29.53098 | -64.26196 | 23065 ft | 353 kts | 354° |
| 2026-04-27 20:00 | -29.50635 | -64.26275 | 23071 ft | 353 kts | 354° |
| 2026-04-27 20:00 | -29.48173 | -64.26354 | 23071 ft | 353 kts | 354° |
| 2026-04-27 20:01 | -29.45718 | -64.26434 | 23074 ft | 353 kts | 354° |
| 2026-04-27 20:01 | -29.43255 | -64.26513 | 23075 ft | 353 kts | 354° |
| 2026-04-27 20:01 | -29.40790 | -64.26592 | 23076 ft | 353 kts | 354° |
| 2026-04-27 20:01 | -29.38323 | -64.26672 | 23071 ft | 354 kts | 354° |
| 2026-04-27 20:02 | -29.35847 | -64.26752 | 23068 ft | 353 kts | 354° |
| 2026-04-27 20:02 | -29.33393 | -64.26831 | 23072 ft | 353 kts | 354° |
| 2026-04-27 20:02 | -29.30946 | -64.26910 | 23066 ft | 353 kts | 354° |
| 2026-04-27 20:02 | -29.28489 | -64.26989 | 23064 ft | 354 kts | 354° |
| 2026-04-27 20:03 | -29.26012 | -64.27068 | 23067 ft | 354 kts | 354° |
| 2026-04-27 20:03 | -29.23534 | -64.27148 | 23075 ft | 353 kts | 354° |
| 2026-04-27 20:03 | -29.21056 | -64.27228 | 23078 ft | 353 kts | 354° |
| 2026-04-27 20:03 | -29.18626 | -64.27306 | 23077 ft | 353 kts | 354° |
| 2026-04-27 20:04 | -29.16162 | -64.27384 | 23081 ft | 353 kts | 354° |
| 2026-04-27 20:04 | -29.13695 | -64.27464 | 23074 ft | 353 kts | 354° |
| 2026-04-27 20:04 | -29.12041 | -64.27517 | 23077 ft | 353 kts | 354° |
| 2026-04-27 20:04 | -29.08767 | -64.27622 | 23078 ft | 354 kts | 354° |
| 2026-04-27 20:05 | -29.06318 | -64.27700 | 22911 ft | 348 kts | 354° |
| 2026-04-27 20:05 | -29.03932 | -64.27779 | 22578 ft | 346 kts | 354° |
| 2026-04-27 20:05 | -29.01526 | -64.27859 | 22200 ft | 345 kts | 354° |
| 2026-04-27 20:05 | -28.99118 | -64.27938 | 21809 ft | 345 kts | 354° |
| 2026-04-27 20:06 | -28.96722 | -64.28016 | 21406 ft | 344 kts | 354° |
| 2026-04-27 20:06 | -28.94322 | -64.28095 | 21013 ft | 343 kts | 354° |
| 2026-04-27 20:06 | -28.91933 | -64.28172 | 20621 ft | 343 kts | 354° |
| 2026-04-27 20:06 | -28.89576 | -64.28247 | 20234 ft | 342 kts | 354° |
| 2026-04-27 20:07 | -28.87199 | -64.28323 | 19837 ft | 341 kts | 354° |
| 2026-04-27 20:07 | -28.84828 | -64.28400 | 19452 ft | 340 kts | 354° |
| 2026-04-27 20:07 | -28.82470 | -64.28474 | 19058 ft | 338 kts | 354° |
| 2026-04-27 20:07 | -28.80101 | -64.28550 | 18673 ft | 335 kts | 354° |
| 2026-04-27 20:08 | -28.77802 | -64.28623 | 18292 ft | 333 kts | 354° |
| 2026-04-27 20:08 | -28.75480 | -64.28698 | 17913 ft | 330 kts | 354° |
| 2026-04-27 20:08 | -28.73189 | -64.28770 | 17538 ft | 328 kts | 354° |
| 2026-04-27 20:08 | -28.70933 | -64.28843 | 17158 ft | 326 kts | 354° |
| 2026-04-27 20:09 | -28.68666 | -64.28915 | 16793 ft | 324 kts | 354° |
| 2026-04-27 20:09 | -28.66405 | -64.28988 | 16418 ft | 322 kts | 355° |
| 2026-04-27 20:09 | -28.64158 | -64.29060 | 16043 ft | 320 kts | 355° |
| 2026-04-27 20:09 | -28.61960 | -64.29130 | 15684 ft | 319 kts | 355° |
| 2026-04-27 20:10 | -28.59740 | -64.29201 | 15308 ft | 317 kts | 355° |
| 2026-04-27 20:10 | -28.55357 | -64.29343 | 14592 ft | 314 kts | 355° |
| 2026-04-27 20:10 | -28.53168 | -64.29414 | 14230 ft | 313 kts | 355° |
| 2026-04-27 20:11 | -28.50992 | -64.29485 | 13872 ft | 310 kts | 355° |
| 2026-04-27 20:11 | -28.48846 | -64.29554 | 13517 ft | 306 kts | 355° |
| 2026-04-27 20:11 | -28.46745 | -64.29622 | 13176 ft | 304 kts | 355° |
| 2026-04-27 20:11 | -28.44617 | -64.29691 | 12826 ft | 301 kts | 355° |
| 2026-04-27 20:12 | -28.42554 | -64.29758 | 12486 ft | 298 kts | 355° |
| 2026-04-27 20:12 | -28.40477 | -64.29825 | 12137 ft | 296 kts | 356° |
| 2026-04-27 20:12 | -28.38417 | -64.29891 | 11794 ft | 293 kts | 356° |
| 2026-04-27 20:12 | -28.36380 | -64.29957 | 11459 ft | 291 kts | 356° |
| 2026-04-27 20:13 | -28.34367 | -64.30022 | 11130 ft | 289 kts | 356° |
| 2026-04-27 20:13 | -28.32360 | -64.30087 | 10797 ft | 287 kts | 356° |
| 2026-04-27 20:13 | -28.30366 | -64.30151 | 10470 ft | 285 kts | 356° |
| 2026-04-27 20:13 | -28.28400 | -64.30223 | 10139 ft | 281 kts | 355° |
| 2026-04-27 20:14 | -28.26485 | -64.30584 | 9819 ft | 274 kts | 345° |
| 2026-04-27 20:14 | -28.24666 | -64.31107 | 9511 ft | 268 kts | 344° |
| 2026-04-27 20:14 | -28.22855 | -64.31632 | 9140 ft | 265 kts | 344° |
| 2026-04-27 20:14 | -28.21077 | -64.32148 | 8812 ft | 260 kts | 345° |
| 2026-04-27 20:15 | -28.19371 | -64.32642 | 8503 ft | 250 kts | 345° |
| 2026-04-27 20:15 | -28.17718 | -64.33121 | 8210 ft | 238 kts | 345° |
| 2026-04-27 20:15 | -28.16140 | -64.33575 | 7936 ft | 227 kts | 345° |
| 2026-04-27 20:15 | -28.14648 | -64.34003 | 7678 ft | 214 kts | 346° |
| 2026-04-27 20:16 | -28.13245 | -64.34406 | 7438 ft | 200 kts | 346° |
| 2026-04-27 20:16 | -28.11936 | -64.34782 | 7211 ft | 186 kts | 346° |
| 2026-04-27 20:16 | -28.10749 | -64.35123 | 6999 ft | 169 kts | 346° |
| 2026-04-27 20:16 | -28.09676 | -64.35432 | 6803 ft | 147 kts | 347° |
| 2026-04-27 20:17 | -28.08728 | -64.35705 | 6490 ft | 138 kts | 348° |
| 2026-04-27 20:17 | -28.07791 | -64.35970 | 6003 ft | 139 kts | 348° |
| 2026-04-27 20:17 | -28.06900 | -64.36224 | 5641 ft | 129 kts | 348° |
| 2026-04-27 20:17 | -28.05999 | -64.36476 | 5018 ft | 137 kts | 348° |
| 2026-04-27 20:18 | -28.05098 | -64.36729 | 4599 ft | 133 kts | 349° |
| 2026-04-27 20:18 | -28.04213 | -64.36976 | 4216 ft | 131 kts | 349° |
| 2026-04-27 20:18 | -28.03313 | -64.37225 | 3846 ft | 134 kts | 349° |
| 2026-04-27 20:18 | -28.02432 | -64.37465 | 3823 ft | 126 kts | 350° |
| 2026-04-27 20:19 | -28.01580 | -64.37691 | 3816 ft | 126 kts | 350° |
| 2026-04-27 20:19 | -28.00712 | -64.37923 | 3843 ft | 132 kts | 350° |
| 2026-04-27 20:19 | -27.99802 | -64.38162 | 3971 ft | 137 kts | 349° |
| 2026-04-27 20:19 | -27.99480 | -64.38252 | 3975 ft | 137 kts | 349° |
| 2026-04-27 20:20 | -27.97965 | -64.38685 | 3999 ft | 133 kts | 349° |
| 2026-04-27 20:20 | -27.97044 | -64.38937 | 4057 ft | 141 kts | 349° |
| 2026-04-27 20:20 | -27.96106 | -64.39205 | 4057 ft | 133 kts | 348° |
| 2026-04-27 20:20 | -27.95238 | -64.39455 | 4069 ft | 127 kts | 349° |
| 2026-04-27 20:21 | -27.94378 | -64.39698 | 4002 ft | 127 kts | 349° |
| 2026-04-27 20:21 | -27.93507 | -64.39943 | 3884 ft | 128 kts | 349° |
| 2026-04-27 20:21 | -27.92626 | -64.40166 | 3806 ft | 129 kts | 358° |
| 2026-04-27 20:21 | -27.91703 | -64.39897 | 3781 ft | 144 kts | 25° |
| 2026-04-27 20:22 | -27.90824 | -64.39397 | 3557 ft | 139 kts | 26° |
| 2026-04-27 20:22 | -27.89987 | -64.38909 | 3363 ft | 131 kts | 27° |
| 2026-04-27 20:22 | -27.89191 | -64.38438 | 3214 ft | 125 kts | 27° |
| 2026-04-27 20:22 | -27.88433 | -64.37986 | 3048 ft | 123 kts | 27° |
| 2026-04-27 20:23 | -27.87665 | -64.37527 | 2909 ft | 124 kts | 28° |
| 2026-04-27 20:23 | -27.86896 | -64.37067 | 2734 ft | 126 kts | 27° |
| 2026-04-27 20:23 | -27.86103 | -64.36595 | 2555 ft | 128 kts | 27° |
| 2026-04-27 20:23 | -27.85310 | -64.36124 | 2383 ft | 130 kts | 27° |
| 2026-04-27 20:24 | -27.84494 | -64.35641 | 2231 ft | 129 kts | 27° |
| 2026-04-27 20:24 | -27.83719 | -64.35178 | 2108 ft | 126 kts | 28° |
| 2026-04-27 20:24 | -27.82930 | -64.34705 | 1947 ft | 131 kts | 28° |
| 2026-04-27 20:24 | -27.82385 | -64.34382 | 1792 ft | 135 kts | 27° |
| 2026-04-27 20:25 | -27.81292 | -64.33740 | 1520 ft | 127 kts | 27° |
| 2026-04-27 20:25 | -27.80540 | -64.33303 | 1313 ft | 117 kts | 24° |
| 2026-04-27 20:25 | -27.79804 | -64.32912 | 1138 ft | 114 kts | 25° |
| 2026-04-27 20:25 | -27.79088 | -64.32497 | 1097 ft | 117 kts | 26° |
| 2026-04-27 20:26 | -27.78349 | -64.32060 | 925 ft | 120 kts | 26° |
| 2026-04-27 20:26 | -27.77610 | -64.31623 | 768 ft | 120 kts | 26° |
| 2026-04-27 20:26 | -27.76893 | -64.31197 | 670 ft | 106 kts | 26° |
| 2026-04-27 20:26 | -27.76299 | -64.30843 | 673 ft | 83 kts | 28° |
| 2026-04-27 20:27 | -27.75928 | -64.30615 | 673 ft | 37 kts | 32° |
| 2026-04-27 20:27 | -27.75805 | -64.30485 | 669 ft | 10 kts | 56° |
| 2026-04-27 20:27 | -27.75773 | -64.30427 | 669 ft | 7 kts | 58° |
| 2026-04-27 20:27 | -27.75749 | -64.30380 | 669 ft | 6 kts | 66° |
| 2026-04-27 20:28 | -27.75733 | -64.30327 | 667 ft | 7 kts | 72° |
| 2026-04-27 20:28 | -27.75717 | -64.30270 | 666 ft | 7 kts | 73° |
| 2026-04-27 20:28 | -27.75703 | -64.30217 | 666 ft | 6 kts | 74° |
| 2026-04-27 20:28 | -27.75695 | -64.30187 | 666 ft | 5 kts | 73° |
| 2026-04-27 20:29 | -27.75682 | -64.30135 | 666 ft | 4 kts | 74° |
| 2026-04-27 20:29 | -27.75674 | -64.30102 | 666 ft | 4 kts | 75° |
| 2026-04-27 20:29 | -27.75666 | -64.30071 | 666 ft | 3 kts | 73° |
| 2026-04-27 20:29 | -27.75658 | -64.30043 | 666 ft | 4 kts | 71° |
| 2026-04-27 20:30 | -27.75647 | -64.30000 | 666 ft | 7 kts | 84° |
| 2026-04-27 20:30 | -27.75668 | -64.29947 | 665 ft | 1 kts | 111° |
| 2026-04-27 20:30 | -27.75668 | -64.29942 | 665 ft | 1 kts | 72° |
| 2026-04-27 20:30 | -27.75656 | -64.29927 | 664 ft | 1 kts | 12° |
| 2026-04-27 20:31 | -27.75652 | -64.29928 | 664 ft | 0 kts | 354° |